createdAt,value
2022-08-05T00:03:21.867Z,97699.00
2022-08-05T00:07:58.930Z,97798.00
2022-08-05T00:11:34.835Z,97823.00
2022-08-05T00:15:56.384Z,97785.00
2022-08-05T00:19:45.564Z,97767.00
2022-08-05T00:23:46.614Z,97780.00
2022-08-05T00:27:42.924Z,97799.00
2022-08-05T00:32:10.591Z,97715.00
2022-08-05T00:35:48.006Z,97760.00
2022-08-05T00:39:57.962Z,97746.00
2022-08-05T00:43:52.746Z,97756.00
2022-08-05T00:48:04.941Z,97768.00
2022-08-05T00:51:56.675Z,97863.00
2022-08-05T00:55:58.461Z,97837.00
2022-08-05T00:59:59.639Z,97854.00
2022-08-05T01:04:01.249Z,97826.00
2022-08-05T01:08:41.409Z,97761.00
2022-08-05T01:12:18.114Z,97685.00
2022-08-05T01:16:21.105Z,97669.00
2022-08-05T01:20:53.019Z,97636.00
2022-08-05T01:25:39.789Z,97633.00
2022-08-05T01:29:36.127Z,97642.00
2022-08-05T01:33:40.881Z,97636.00
2022-08-05T01:37:45.582Z,97631.00
2022-08-05T01:41:48.422Z,97626.00
2022-08-05T01:45:55.195Z,97650.00
2022-08-05T01:50:01.907Z,97663.00
2022-08-05T01:53:59.086Z,97631.00
2022-08-05T01:58:12.249Z,97657.00
2022-08-05T02:02:10.798Z,97643.00
2022-08-05T02:06:38.151Z,97662.00
2022-08-05T02:10:17.517Z,97652.00
2022-08-05T02:14:25.252Z,97567.00
2022-08-05T02:18:41.893Z,97533.00
2022-08-05T02:22:46.072Z,97537.00
2022-08-05T02:26:54.543Z,97540.00
2022-08-05T02:31:02.363Z,97533.00
2022-08-05T02:35:13.775Z,97498.00
2022-08-05T02:39:14.575Z,97479.00
2022-08-05T02:43:17.503Z,97488.00
2022-08-05T02:47:21.052Z,97533.00
2022-08-05T02:51:48.446Z,97604.00
2022-08-05T02:55:52.160Z,97697.00
2022-08-05T02:59:48.135Z,97739.00
2022-08-05T03:04:04.354Z,97710.00
2022-08-05T03:08:07.436Z,97709.00
2022-08-05T03:11:56.316Z,97702.00
2022-08-05T03:15:49.725Z,97697.00
2022-08-05T03:19:52.662Z,97688.00
2022-08-05T03:23:54.568Z,97702.00
2022-08-05T03:27:59.755Z,97703.00
2022-08-05T03:32:00.921Z,97703.00
2022-08-05T03:36:01.983Z,97704.00
2022-08-05T03:40:07.917Z,97681.00
2022-08-05T03:44:11.580Z,97671.00
2022-08-05T03:48:13.358Z,97700.00
2022-08-05T03:52:38.672Z,97713.00
2022-08-05T03:56:35.860Z,97717.00
2022-08-05T04:00:39.419Z,97715.00
2022-08-05T04:04:44.906Z,97736.00
2022-08-05T04:08:48.621Z,97754.00
2022-08-05T04:12:49.949Z,97774.00
2022-08-05T04:16:51.323Z,97762.00
2022-08-05T04:20:55.895Z,97769.00
2022-08-05T04:24:56.977Z,97775.00
2022-08-05T04:29:00.394Z,97765.00
2022-08-05T04:33:03.488Z,97770.00
2022-08-05T04:37:04.978Z,97774.00
2022-08-05T04:41:05.879Z,97766.00
2022-08-05T04:45:09.647Z,97758.00
2022-08-05T04:49:14.763Z,97766.00
2022-08-05T04:53:17.072Z,97771.00
2022-08-05T04:57:18.069Z,97767.00
2022-08-05T05:02:08.386Z,97750.00
2022-08-05T05:05:28.289Z,97752.00
2022-08-05T05:09:25.086Z,97741.00
2022-08-05T05:13:26.811Z,97748.00
2022-08-05T05:17:57.115Z,97758.00
2022-08-05T05:21:41.896Z,97772.00
2022-08-05T05:25:44.911Z,97768.00
2022-08-05T05:30:04.557Z,97766.00
2022-08-05T05:33:59.651Z,97784.00
2022-08-05T05:38:01.424Z,97784.00
2022-08-05T05:41:59.478Z,97786.00
2022-08-05T05:46:01.364Z,97741.00
2022-08-05T05:50:04.226Z,97761.00
2022-08-05T05:54:05.430Z,97775.00
2022-08-05T05:58:08.329Z,97769.00
2022-08-05T06:02:10.369Z,97758.00
2022-08-05T06:06:11.539Z,97760.00
2022-08-05T06:10:12.911Z,97726.00
2022-08-05T06:14:13.799Z,97736.00
2022-08-05T06:18:14.748Z,97718.00
2022-08-05T06:22:25.335Z,97706.00
2022-08-05T06:26:26.233Z,97695.00
2022-08-05T06:30:29.325Z,97730.00
2022-08-05T06:34:30.293Z,97756.00
2022-08-05T06:38:35.686Z,97767.00
2022-08-05T06:42:34.337Z,97758.00
2022-08-05T06:46:37.950Z,97721.00
2022-08-05T06:50:39.211Z,97706.00
2022-08-05T06:54:40.856Z,97686.00
2022-08-05T06:58:42.283Z,97678.00
2022-08-05T07:02:46.306Z,97704.00
2022-08-05T07:06:50.281Z,97719.00
2022-08-05T07:10:53.652Z,97723.00
2022-08-05T07:15:34.176Z,97734.00
2022-08-05T07:19:38.905Z,97725.00
2022-08-05T07:23:29.507Z,97758.00
2022-08-05T07:27:58.526Z,97811.00
2022-08-05T07:31:40.933Z,97823.00
2022-08-05T07:36:03.941Z,97813.00
2022-08-05T07:40:26.543Z,97840.00
2022-08-05T07:43:48.424Z,97823.00
2022-08-05T07:47:50.964Z,97837.00
2022-08-05T07:51:55.349Z,97851.00
2022-08-05T07:56:05.436Z,97850.00
2022-08-05T08:00:01.720Z,97851.00
2022-08-05T08:04:03.467Z,97842.00
2022-08-05T08:08:07.894Z,97866.00
2022-08-05T08:12:36.873Z,97844.00
2022-08-05T08:16:49.754Z,97826.00
2022-08-05T08:20:59.819Z,97850.00
2022-08-05T08:24:51.053Z,97842.00
2022-08-05T08:28:49.686Z,97862.00
2022-08-05T08:32:41.760Z,97857.00
2022-08-05T08:36:51.893Z,97846.00
2022-08-05T08:40:51.710Z,97844.00
2022-08-05T08:45:19.669Z,97860.00
2022-08-05T08:50:07.897Z,97858.00
2022-08-05T08:53:12.218Z,97853.00
2022-08-05T08:57:13.587Z,97857.00
2022-08-05T09:01:18.020Z,97855.00
2022-08-05T09:05:38.297Z,97841.00
2022-08-05T09:09:34.683Z,97850.00
2022-08-05T09:13:31.429Z,97844.00
2022-08-05T09:17:43.001Z,97848.00
2022-08-05T09:22:21.974Z,97840.00
2022-08-05T09:26:02.981Z,97835.00
2022-08-05T09:29:51.583Z,97843.00
2022-08-05T09:34:02.762Z,97830.00
2022-08-05T09:38:16.199Z,97822.00
2022-08-05T09:42:24.557Z,97832.00
2022-08-05T09:46:35.359Z,97841.00
2022-08-05T09:50:44.486Z,97848.00
2022-08-05T09:54:46.317Z,97841.00
2022-08-05T09:59:17.056Z,97842.00
2022-08-05T10:03:16.559Z,97838.00
2022-08-05T10:07:50.378Z,97826.00
2022-08-05T10:11:23.792Z,97833.00
2022-08-05T10:15:29.705Z,97823.00
2022-08-05T10:20:03.650Z,97831.00
2022-08-05T10:23:58.827Z,97842.00
2022-08-05T10:28:13.910Z,97844.00
2022-08-05T10:32:52.416Z,97845.00
2022-08-05T10:35:52.645Z,97828.00
2022-08-05T10:39:59.236Z,97855.00
2022-08-05T10:44:07.736Z,97866.00
2022-08-05T10:48:38.390Z,97875.00
2022-08-05T10:52:49.476Z,97882.00
2022-08-05T10:56:52.718Z,97877.00
2022-08-05T11:01:03.139Z,97882.00
2022-08-05T11:05:06.837Z,97875.00
2022-08-05T11:09:16.802Z,97880.00
2022-08-05T11:13:57.672Z,97882.00
2022-08-05T11:17:59.654Z,97903.00
2022-08-05T11:21:55.056Z,97895.00
2022-08-05T11:26:08.732Z,97913.00
2022-08-05T11:30:10.541Z,97922.00
2022-08-05T11:34:14.706Z,97930.00
2022-08-05T11:38:27.765Z,97932.00
2022-08-05T11:42:23.735Z,97917.00
2022-08-05T11:46:32.634Z,97911.00
2022-08-05T11:50:38.430Z,97927.00
2022-08-05T11:54:41.755Z,97918.00
2022-08-05T11:58:52.920Z,97925.00
2022-08-05T12:02:51.178Z,97937.00
2022-08-05T12:06:54.956Z,97940.00
2022-08-05T12:11:05.473Z,97946.00
2022-08-05T12:15:04.296Z,97957.00
2022-08-05T12:19:08.857Z,97958.00
2022-08-05T12:23:12.339Z,97963.00
2022-08-05T12:27:32.864Z,97967.00
2022-08-05T12:31:41.490Z,97969.00
2022-08-05T12:35:39.937Z,97977.00
2022-08-05T12:39:43.385Z,97980.00
2022-08-05T12:44:01.148Z,97992.00
2022-08-05T12:48:27.758Z,97969.00
2022-08-05T12:52:25.155Z,97971.00
2022-08-05T12:56:34.684Z,97980.00
2022-08-05T13:02:03.768Z,97984.00
2022-08-05T13:04:41.837Z,97986.00
2022-08-05T13:08:50.892Z,97991.00
2022-08-05T13:12:51.265Z,97989.00
2022-08-05T13:16:57.755Z,97996.00
2022-08-05T13:21:02.629Z,98010.00
2022-08-05T13:25:19.397Z,98014.00
2022-08-05T13:29:12.506Z,98004.00
2022-08-05T13:34:22.197Z,98010.00
2022-08-05T13:37:34.502Z,98017.00
2022-08-05T13:41:34.590Z,98033.00
2022-08-05T13:45:33.955Z,98059.00
2022-08-05T13:49:32.108Z,98062.00
2022-08-05T13:53:48.044Z,98065.00
2022-08-05T13:57:50.826Z,98058.00
2022-08-05T14:01:56.293Z,98053.00
2022-08-05T14:06:24.668Z,98070.00
2022-08-05T14:09:52.267Z,98066.00
2022-08-05T14:13:57.708Z,98062.00
2022-08-05T14:17:59.775Z,98046.00
2022-08-05T14:22:09.203Z,98055.00
2022-08-05T14:26:08.589Z,98054.00
2022-08-05T14:30:20.004Z,98074.00
2022-08-05T14:34:18.217Z,98091.00
2022-08-05T14:38:31.735Z,98104.00
2022-08-05T14:42:25.938Z,98122.00
2022-08-05T14:46:29.822Z,98095.00
2022-08-05T14:50:39.716Z,98083.00
2022-08-05T14:54:52.682Z,98080.00
2022-08-05T14:58:47.880Z,98091.00
2022-08-05T15:02:48.338Z,98074.00
2022-08-05T15:06:51.146Z,98082.00
2022-08-05T15:10:54.397Z,98097.00
2022-08-05T15:14:57.420Z,98086.00
2022-08-05T15:18:58.468Z,98089.00
2022-08-05T15:23:07.266Z,98106.00
2022-08-05T15:27:10.831Z,98097.00
2022-08-05T15:31:13.051Z,98099.00
2022-08-05T15:35:17.012Z,98111.00
2022-08-05T15:41:00.148Z,98108.00
2022-08-05T15:43:21.891Z,98116.00
2022-08-05T15:47:23.769Z,98108.00
2022-08-05T15:52:14.019Z,98071.00
2022-08-05T15:56:02.558Z,98131.00
2022-08-05T15:59:32.862Z,98133.00
2022-08-05T16:03:34.973Z,98136.00
2022-08-05T16:07:37.829Z,98133.00
2022-08-05T16:11:42.921Z,98145.00
2022-08-05T16:15:42.825Z,98129.00
2022-08-05T16:20:04.270Z,98147.00
2022-08-05T16:23:54.520Z,98148.00
2022-08-05T16:28:02.203Z,98154.00
2022-08-05T16:31:57.577Z,98158.00
2022-08-05T16:36:00.357Z,98158.00
2022-08-05T16:40:13.359Z,98159.00
2022-08-05T16:44:16.389Z,98153.00
2022-08-05T16:48:25.960Z,98155.00
2022-08-05T16:52:22.752Z,98155.00
2022-08-05T16:56:25.946Z,98166.00
2022-08-05T17:00:34.424Z,98167.00
2022-08-05T17:04:32.949Z,98160.00
2022-08-05T17:08:52.165Z,98157.00
2022-08-05T17:12:51.384Z,98172.00
2022-08-05T17:16:42.713Z,98169.00
2022-08-05T17:20:46.057Z,98165.00
2022-08-05T17:24:57.494Z,98172.00
2022-08-05T17:28:52.187Z,98166.00
2022-08-05T17:32:54.538Z,98183.00
2022-08-05T17:36:56.325Z,98183.00
2022-08-05T17:40:59.043Z,98166.00
2022-08-05T17:45:09.701Z,98190.00
2022-08-05T17:49:03.901Z,98187.00
2022-08-05T17:53:05.177Z,98193.00
2022-08-05T17:57:12.205Z,98200.00
2022-08-05T18:01:10.414Z,98199.00
2022-08-05T18:05:16.663Z,98205.00
2022-08-05T18:09:15.309Z,98218.00
2022-08-05T18:13:16.413Z,98217.00
2022-08-05T18:17:59.099Z,98223.00
2022-08-05T18:21:26.039Z,98225.00
2022-08-05T18:25:25.484Z,98236.00
2022-08-05T18:29:41.041Z,98240.00
2022-08-05T18:33:37.560Z,98250.00
2022-08-05T18:37:40.254Z,98255.00
2022-08-05T18:41:54.957Z,98265.00
2022-08-05T18:45:41.861Z,98262.00
2022-08-05T18:50:01.449Z,98274.00
2022-08-05T18:54:04.851Z,98289.00
2022-08-05T18:58:05.880Z,98297.00
2022-08-05T19:02:26.468Z,98298.00
2022-08-05T19:06:18.788Z,98300.00
2022-08-05T19:10:13.519Z,98311.00
2022-08-05T19:14:44.638Z,98326.00
2022-08-05T19:18:22.046Z,98335.00
2022-08-05T19:22:27.482Z,98337.00
2022-08-05T19:26:24.028Z,98343.00
2022-08-05T19:30:26.493Z,98350.00
2022-08-05T19:34:29.208Z,98350.00
2022-08-05T19:38:31.609Z,98368.00
2022-08-05T19:42:35.403Z,98381.00
2022-08-05T19:46:39.365Z,98378.00
2022-08-05T19:50:41.025Z,98396.00
2022-08-05T19:54:43.305Z,98394.00
2022-08-05T19:58:53.894Z,98409.00
2022-08-05T20:02:47.688Z,98409.00
2022-08-05T20:06:49.733Z,98409.00
2022-08-05T20:10:51.675Z,98400.00
2022-08-05T20:14:53.311Z,98408.00
2022-08-05T20:18:55.304Z,98426.00
2022-08-05T20:22:56.650Z,98421.00
2022-08-05T20:26:59.612Z,98429.00
2022-08-05T20:31:00.944Z,98431.00
2022-08-05T20:35:03.796Z,98432.00
2022-08-05T20:39:05.816Z,98447.00
2022-08-05T20:43:07.151Z,98448.00
2022-08-05T20:47:08.275Z,98456.00
2022-08-05T20:51:11.197Z,98464.00
2022-08-05T20:55:56.866Z,98464.00
2022-08-05T20:59:26.243Z,98469.00
2022-08-05T21:03:20.549Z,98475.00
2022-08-05T21:07:21.772Z,98477.00
2022-08-05T21:12:07.639Z,98473.00
2022-08-05T21:15:26.323Z,98477.00
2022-08-05T21:19:29.469Z,98480.00
2022-08-05T21:23:37.508Z,98486.00
2022-08-05T21:27:38.848Z,98494.00
2022-08-05T21:31:41.093Z,98484.00
2022-08-05T21:35:55.938Z,98490.00
2022-08-05T21:39:44.337Z,98490.00
2022-08-05T21:44:01.242Z,98487.00
2022-08-05T21:47:56.552Z,98493.00
2022-08-05T21:52:22.796Z,98499.00
2022-08-05T21:56:05.518Z,98510.00
2022-08-05T22:00:11.271Z,98500.00
2022-08-05T22:04:13.538Z,98498.00
2022-08-05T22:08:22.284Z,98502.00
2022-08-05T22:12:15.901Z,98504.00
2022-08-05T22:16:41.053Z,98502.00
2022-08-05T22:20:21.339Z,98500.00
2022-08-05T22:24:51.809Z,98513.00
2022-08-05T22:28:45.333Z,98526.00
2022-08-05T22:32:46.491Z,98536.00
2022-08-05T22:36:48.138Z,98537.00
2022-08-05T22:40:54.997Z,98530.00
2022-08-05T22:44:56.417Z,98461.00
2022-08-05T22:48:56.338Z,98534.00
2022-08-05T22:52:57.447Z,98537.00
2022-08-05T22:56:58.429Z,98536.00
2022-08-05T23:00:59.927Z,98544.00
2022-08-05T23:05:01.444Z,98550.00
2022-08-05T23:09:27.795Z,98551.00
2022-08-05T23:13:07.203Z,98553.00
2022-08-05T23:17:24.542Z,98555.00
2022-08-05T23:21:26.175Z,98562.00
2022-08-05T23:25:52.345Z,98573.00
2022-08-05T23:29:34.495Z,98584.00
2022-08-05T23:34:03.155Z,98588.00
2022-08-05T23:37:38.744Z,98591.00
2022-08-05T23:41:41.064Z,98589.00
2022-08-05T23:45:42.923Z,98590.00
2022-08-05T23:49:45.534Z,98513.00
2022-08-05T23:53:47.181Z,98584.00
2022-08-05T23:57:48.868Z,98591.00
